Terminal Aerodrome Forecast
Issued by NWS

Current Version | Previous Version | Text Only | Print | Product List | Glossary Off
Versions: 1 2 3 4 5 6 7 8 9 10 11 12 13 14 15 16 17 18 19 20

090
FTUS41 KPBZ 022326
TAFHLG
TAF
KHLG 022326Z 0300/0324 36005KT P6SM VCSH OVC040
     FM030500 VRB04KT 5SM BR VCSH OVC015
     FM031000 VRB04KT 3SM BR BKN010
     FM031600 VRB04KT P6SM BKN025
     FM031900 30007KT P6SM BKN035=

USA.gov is the U.S. government's official web portal to all federal, state and local government web resources and services.